Aérodrome :
LOGIN :

S'inscrire | Disclaimer

   EN    FR    IT 

 










Légende :    VFR   VFR Marginal   IFR   IFR Intensif   IFR Très Intensif
Visi : 
Plafond : 
>= 8 km
>= 3000ft
5 à 8 km
1000 à 3000 ft
1500m à 5 km
500 à 1000 ft
800 à 1500m
200 à 500 ft
< 800m
< 200 ft
Symboles :   Orages  Brouillard  Fortes neiges  Fortes précipitations  Vent > 20 kt
SIGMETs :   Divers  Orages  Givrage  Turbulence  Onde Orograph.  Cendres Volcan.







- Altitude de l'aérodrome : 49 ft
- Code IATA : GLZ


EHGR - Gilze-Rijen Airbase

DERNIER METAR :
  • 190825Z AUTO 09009KT 060V130 9999 NCD 18/05 Q1028 BLU 08008KT CAVOK

METARs EXPIRÉS :
  • 190755Z AUTO 08008KT 030V140 9999 NCD 17/04 Q1028 BLU 08008KT CAVOK
  • 190725Z AUTO 08007KT 030V120 9999 OVC150 16/05 Q1027 BLU 08008KT CAVOK
  • 190655Z AUTO 08008KT 040V130 9999 OVC150 15/05 Q1027 BLU 08008KT CAVOK
  • 190632Z AUTO 08006KT 030V140 9999 NCD 13/04 Q1027 BLU 08008KT CAVOK
  • 190555Z AUTO 07007KT 040V120 9999 OVC160 12/04 Q1027 BLU

TAF TAF EHGR
Valide du 19 à 05h jusqu'au 19 à 17h UTC


190413Z 1905/1917 07008KT CAVOK
Pas de NOTAMs connus pour ce terrain.



MET'MAP, la Météo Aéronautique d'un coup d'oeil ! - Copyright ORBIFLY Décembre 2007 - Disclaimer

ORBIFLY MET'MAP TEAM :

Programmation & Développement : Alexandra Zaïnal
Conception & Développement : Baudouin d'Aumeries
Co-Programmation & Développement : Marc-Olivier Méhu
Soutien technique & logistique : Manuel Goepfert

Contact : metmap@orbifly.com




SOURCES & CREDITS :

   NOAA